Airfield :
LOGIN :

Register | Disclaimer

   EN    FR    IT 

 










Legend :    VFR   Marginal VFR   IFR   Intensive IFR   Very Intensive IFR
Visi :
Ceiling :
>= 8 km
>= 3000ft
5 to 8 km
1000 to 3000 ft
1500m to 5 km
500 to 1000 ft
800 to 1500m
200 to 500 ft
< 800m
< 200 ft
Symbols :   Thunderstorms  Fog  Heavy snow  Heavy precipitations  Wind > 20 kt
SIGMETs :     Misc.  Thunderstorms  Icing  Turbulence  Mountain Waves  Volcanic Ashes







- Airport Elevation : 17 ft
- IATA code : GRQ


EHGG - Groningen Eelde

CURRENT METAR :
  • 230555Z AUTO 24005KT 1900 BR OVC034 07/06 Q1027 BECMG 2500

EXPIRED METARs :
  • 230525Z AUTO 23005KT 1800 BR OVC033 06/06 Q1027 BECMG 2500
  • 230455Z AUTO 23005KT 2000 BR OVC033 05/05 Q1027
  • 230425Z AUTO 24004KT 1300 R23/1900N BR FEW026 OVC032 03/03 Q1027
  • 230355Z AUTO 23004KT 1300 R23/1700U BR SCT033 03/03 Q1026
  • 230325Z AUTO 22004KT 1500 BR NSC 03/02 Q1026

TAF COR TAF EHGG
Valid from the 23 at 06:00 until the 24 at 12:00 UTC


230526Z 2306/2412 24005KT 2000 BR BKN035
BECMG 2308/2310 9999 NSW
BECMG 2309/2311 01010KT
BECMG 2403/2406 27006KT
PROB40
TEMPO 2403/2406 1200 BCFG
No reported NOTAMs for that airfield.



MET'MAP, your aeronautical weather chart ! - Copyright ORBIFLY December 2007 - Disclaimer

ORBIFLY MET'MAP TEAM :

Programming & Development : Alexandra Zaïnal
Concept & Development : Baudouin d'Aumeries
Co-Development & Prog : Marc-Olivier Méhu
Technical & hardware support : Manuel Goepfert

Contact : metmap@orbifly.com




SOURCES & CREDITS :

   NOAA